Time;durP1;ratioP1;P1;durP2;ratioP2;P2;SDS_P1;SDS_P2;PMS_P1;PMS_P2;Temp;Humidity;BMP_temperature;BMP_pressure;BME280_temperature;BME280_humidity;BME280_pressure;Samples;Min_cycle;Max_cycle;Signal;HPM_P1;HPM_P2
2024/01/07 00:00:04;;;;;;;97.95;62.60;;;;;;;;;;5048869;28;20526;-68
2024/01/07 00:03:08;;;;;;;87.68;60.75;;;;;;;;;;5048692;28;20052;-68
2024/01/07 00:06:13;;;;;;;89.07;60.28;;;;;;;;;;5048937;28;20064;-68
2024/01/07 00:09:17;;;;;;;87.18;59.85;;;;;;;;;;5049248;28;20051;-69
2024/01/07 00:12:22;;;;;;;84.18;57.92;;;;;;;;;;5096560;27;20045;-69
2024/01/07 00:15:26;;;;;;;86.47;57.80;;;;;;;;;;5048833;28;20503;-69
2024/01/07 00:18:30;;;;;;;89.57;58.33;;;;;;;;;;5048255;28;20507;-68
2024/01/07 00:21:35;;;;;;;86.28;60.13;;;;;;;;;;5048579;28;20044;-69
2024/01/07 00:24:39;;;;;;;81.53;57.65;;;;;;;;;;5095895;27;20044;-69
2024/01/07 00:27:43;;;;;;;83.35;58.40;;;;;;;;;;5048386;28;20040;-69
2024/01/07 00:30:48;;;;;;;87.47;58.13;;;;;;;;;;5048084;28;20040;-69
2024/01/07 00:33:52;;;;;;;76.93;55.50;;;;;;;;;;5048001;28;20036;-68
2024/01/07 00:36:56;;;;;;;77.57;56.03;;;;;;;;;;5095875;27;20060;-69
2024/01/07 00:40:01;;;;;;;77.15;54.90;;;;;;;;;;5095856;27;20043;-69
2024/01/07 00:43:05;;;;;;;79.65;56.15;;;;;;;;;;5048161;28;20048;-68
2024/01/07 00:46:09;;;;;;;81.97;56.38;;;;;;;;;;5047948;28;20503;-68
2024/01/07 00:49:14;;;;;;;82.22;56.47;;;;;;;;;;5047955;28;20056;-69
2024/01/07 00:52:18;;;;;;;81.50;56.95;;;;;;;;;;5095797;27;20048;-69
2024/01/07 00:55:23;;;;;;;89.18;59.40;;;;;;;;;;5048262;28;20045;-69
2024/01/07 00:58:27;;;;;;;85.63;56.33;;;;;;;;;;5048010;28;20060;-68
2024/01/07 01:01:32;;;;;;;79.70;54.72;;;;;;;;;;5095766;27;20040;-69
2024/01/07 01:04:39;;;;;;;78.10;55.17;;;11.80;99.90;;;;;;5047923;28;20056;-68
2024/01/07 01:07:43;;;;;;;77.05;55.83;;;;;;;;;;5047676;28;20391;-68
2024/01/07 01:10:48;;;;;;;78.70;55.67;;;;;;;;;;5095010;28;20455;-68
2024/01/07 01:13:52;;;;;;;80.30;55.42;;;;;;;;;;5047744;28;20052;-68
2024/01/07 01:16:57;;;;;;;87.72;63.42;;;;;;;;;;5047452;28;20513;-68
2024/01/07 01:20:01;;;;;;;81.35;56.72;;;;;;;;;;5047940;28;20395;-69
2024/01/07 01:23:06;;;;;;;81.03;57.55;;;;;;;;;;5095439;28;20052;-68
2024/01/07 01:26:10;;;;;;;84.10;58.45;;;;;;;;;;5047892;28;20380;-69
2024/01/07 01:29:14;;;;;;;86.65;58.00;;;;;;;;;;5095105;28;20048;-68
2024/01/07 01:32:19;;;;;;;78.18;53.95;;;;;;;;;;5047885;28;20117;-68
2024/01/07 01:35:23;;;;;;;78.53;52.92;;;;;;;;;;5047692;28;20044;-68
2024/01/07 01:38:27;;;;;;;72.53;51.08;;;;;;;;;;5095048;28;20044;-68
2024/01/07 01:41:33;;;;;;;77.90;48.45;;;11.40;99.90;;;;;;5047463;28;20048;-69
2024/01/07 01:44:37;;;;;;;70.65;47.72;;;;;;;;;;5047305;28;20098;-69
2024/01/07 01:47:42;;;;;;;65.65;46.58;;;;;;;;;;5097335;27;20044;-68
2024/01/07 01:50:47;;;;;;;67.72;46.65;;;11.50;99.90;;;;;;5099049;27;20048;-68
2024/01/07 01:53:52;;;;;;;66.00;46.78;;;;;;;;;;5051057;28;20067;-68
2024/01/07 01:56:56;;;;;;;69.63;45.30;;;;;;;;;;5050819;28;20064;-68
2024/01/07 02:00:04;;;;;;;61.65;42.53;;;11.70;99.90;;;;;;5098667;27;20391;-69
2024/01/07 02:03:10;;;;;;;63.95;43.85;;;;;;;;;;5050419;28;20060;-68
2024/01/07 02:06:14;;;;;;;62.15;41.97;;;;;;;;;;5098133;27;20048;-68
2024/01/07 02:09:18;;;;;;;60.63;43.65;;;;;;;;;;5086577;28;20044;-69
2024/01/07 02:12:23;;;;;;;66.70;44.08;;;;;;;;;;5050720;28;20046;-67
2024/01/07 02:15:27;;;;;;;60.90;42.22;;;;;;;;;;5086896;28;20120;-68
2024/01/07 02:18:31;;;;;;;60.45;43.03;;;;;;;;;;5097527;27;20516;-69
2024/01/07 02:21:36;;;;;;;61.47;43.13;;;;;;;;;;5050611;28;20052;-68
2024/01/07 02:24:40;;;;;;;64.50;44.08;;;;;;;;;;5086614;28;20432;-68
2024/01/07 02:27:46;;;;;;;65.72;44.78;;;;;;;;;;5097047;27;20056;-68
2024/01/07 02:30:50;;;;;;;64.47;43.63;;;;;;;;;;5098361;27;20396;-69
2024/01/07 02:33:54;;;;;;;69.15;42.92;;;;;;;;;;5097803;27;20063;-69
2024/01/07 02:36:59;;;;;;;63.88;42.78;;;;;;;;;;5097778;27;20055;-69
2024/01/07 02:40:03;;;;;;;64.18;43.05;;;;;;;;;;5098091;27;20040;-69
2024/01/07 02:43:09;;;;;;;67.68;44.22;;;;;;;;;;5085447;27;20401;-69
2024/01/07 02:46:14;;;;;;;68.43;43.10;;;11.40;99.90;;;;;;5049907;28;20499;-69
2024/01/07 02:49:18;;;;;;;67.30;44.28;;;;;;;;;;5049910;28;20040;-69
2024/01/07 02:52:23;;;;;;;65.07;44.45;;;;;;;;;;5049875;28;20424;-69
2024/01/07 02:55:27;;;;;;;59.78;42.15;;;;;;;;;;5049980;28;20388;-69
2024/01/07 02:58:31;;;;;;;63.83;43.35;;;;;;;;;;5097097;27;20044;-69
2024/01/07 03:01:40;;;;;;;64.93;42.25;;;;;;;;;;5049607;28;20048;-68
2024/01/07 03:04:44;;;;;;;63.58;43.42;;;;;;;;;;5049243;28;20551;-69
2024/01/07 03:07:49;;;;;;;65.05;43.08;;;;;;;;;;5049015;28;20037;-68
2024/01/07 03:10:53;;;;;;;65.30;41.78;;;;;;;;;;5097019;27;20047;-68
2024/01/07 03:13:57;;;;;;;58.47;41.97;;;;;;;;;;5049196;28;20040;-68
2024/01/07 03:17:01;;;;;;;59.95;41.35;;;;;;;;;;5049151;28;20599;-68
2024/01/07 03:20:06;;;;;;;66.43;43.38;;;;;;;;;;5049280;28;20060;-68
2024/01/07 03:23:10;;;;;;;58.58;43.35;;;;;;;;;;5049113;28;20047;-68
2024/01/07 03:26:15;;;;;;;64.50;42.78;;;;;;;;;;5049275;28;20048;-69
2024/01/07 03:29:19;;;;;;;63.65;42.25;;;;;;;;;;5049039;28;20508;-68
2024/01/07 03:32:23;;;;;;;62.33;42.25;;;;;;;;;;5048919;28;20373;-69
2024/01/07 03:35:28;;;;;;;68.82;43.38;;;;;;;;;;5049065;28;20044;-68
2024/01/07 03:38:32;;;;;;;61.28;43.00;;;;;;;;;;5048841;28;20048;-68
2024/01/07 03:41:36;;;;;;;66.20;43.75;;;;;;;;;;5048748;28;20396;-69
2024/01/07 03:44:41;;;;;;;76.95;43.85;;;;;;;;;;5096588;27;20060;-69
2024/01/07 03:47:45;;;;;;;66.03;43.05;;;;;;;;;;5048334;28;20040;-67
2024/01/07 03:50:50;;;;;;;64.80;44.40;;;;;;;;;;5048742;28;20147;-67
2024/01/07 03:53:54;;;;;;;67.82;44.90;;;;;;;;;;5048381;28;20056;-67
2024/01/07 03:56:58;;;;;;;69.75;47.72;;;;;;;;;;5048643;28;20074;-68
2024/01/07 04:00:04;;;;;;;69.10;48.05;;;;;;;;;;5048434;28;20191;-69
2024/01/07 04:03:09;;;;;;;67.53;47.08;;;;;;;;;;5048420;28;20048;-68
2024/01/07 04:06:13;;;;;;;68.97;47.17;;;;;;;;;;5048535;28;20048;-68
2024/01/07 04:09:17;;;;;;;57.80;42.22;;;;;;;;;;5047748;28;20143;-68
2024/01/07 04:12:22;;;;;;;53.85;38.95;;;;;;;;;;5048545;28;20044;-68
2024/01/07 04:15:26;;;;;;;64.28;42.65;;;;;;;;;;5048209;28;20056;-68
2024/01/07 04:18:30;;;;;;;56.28;41.55;;;;;;;;;;5047763;28;20425;-68
2024/01/07 04:21:35;;;;;;;61.45;41.97;;;;;;;;;;5047992;28;20048;-68
2024/01/07 04:24:41;;;;;;;59.38;41.97;;;10.90;99.90;;;;;;5048135;28;20056;-68
2024/01/07 04:27:45;;;;;;;61.55;42.70;;;;;;;;;;5048152;28;20048;-68
2024/01/07 04:30:50;;;;;;;61.80;42.88;;;;;;;;;;5048170;28;20055;-68
2024/01/07 04:33:54;;;;;;;63.03;43.05;;;;;;;;;;5048169;28;20385;-68
2024/01/07 04:36:59;;;;;;;65.97;43.65;;;;;;;;;;5048114;28;20044;-68
2024/01/07 04:40:03;;;;;;;59.28;42.30;;;;;;;;;;5047935;28;20048;-68
2024/01/07 04:43:08;;;;;;;62.00;42.67;;;;;;;;;;5047761;28;20056;-68
2024/01/07 04:46:12;;;;;;;64.70;44.42;;;;;;;;;;5048039;28;20048;-68
2024/01/07 04:49:16;;;;;;;63.22;42.00;;;;;;;;;;5048007;28;20043;-68
2024/01/07 04:52:24;;;;;;;62.05;42.90;;;11.80;99.90;;;;;;5048044;28;20044;-67
2024/01/07 04:55:28;;;;;;;62.13;40.78;;;;;;;;;;5095468;27;20052;-68
2024/01/07 04:58:33;;;;;;;57.88;39.72;;;;;;;;;;5047483;28;20064;-68
2024/01/07 05:01:37;;;;;;;59.08;40.40;;;;;;;;;;5047775;28;20040;-68
2024/01/07 05:04:41;;;;;;;61.60;40.80;;;11.30;99.90;;;;;;5047748;28;20052;-67
2024/01/07 05:07:46;;;;;;;59.60;41.03;;;;;;;;;;5047361;28;20389;-68
2024/01/07 05:10:50;;;;;;;60.22;41.20;;;;;;;;;;5047350;28;20040;-68
2024/01/07 05:13:54;;;;;;;57.03;38.13;;;;;;;;;;5047674;28;20044;-68
2024/01/07 05:16:58;;;;;;;61.55;41.10;;;;;;;;;;5047324;28;20052;-68
2024/01/07 05:20:03;;;;;;;61.75;41.10;;;;;;;;;;5047845;28;20037;-69
2024/01/07 05:23:07;;;;;;;60.10;40.85;;;;;;;;;;5050993;28;20049;-68
2024/01/07 05:26:12;;;;;;;56.17;39.97;;;;;;;;;;5099219;27;20064;-68
2024/01/07 05:29:16;;;;;;;55.85;40.30;;;;;;;;;;5051035;28;20048;-68
2024/01/07 05:32:20;;;;;;;63.50;40.40;;;;;;;;;;5098417;27;20048;-69
2024/01/07 05:35:24;;;;;;;60.67;39.80;;;;;;;;;;5050727;28;20404;-69
2024/01/07 05:38:28;;;;;;;60.25;39.17;;;;;;;;;;5050356;28;20043;-68
2024/01/07 05:41:33;;;;;;;55.00;37.80;;;;;;;;;;5050531;28;20036;-67
2024/01/07 05:44:37;;;;;;;50.58;36.85;;;;;;;;;;5098222;27;20048;-68
2024/01/07 05:47:42;;;;;;;51.45;36.70;;;;;;;;;;5050662;28;20040;-68
2024/01/07 05:50:46;;;;;;;56.70;39.83;;;;;;;;;;5050737;28;20036;-67
2024/01/07 05:53:50;;;;;;;57.42;38.17;;;;;;;;;;5050757;28;20507;-68
2024/01/07 05:56:54;;;;;;;55.15;35.05;;;;;;;;;;5050816;28;20223;-69
2024/01/07 05:59:58;;;;;;;46.63;33.00;;;;;;;;;;5050617;28;20488;-69
2024/01/07 06:03:03;;;;;;;47.08;33.15;;;;;;;;;;5050483;28;20056;-68
2024/01/07 06:06:07;;;;;;;47.63;32.28;;;;;;;;;;5050149;28;20044;-69
2024/01/07 06:09:12;;;;;;;44.88;29.90;;;;;;;;;;5050403;28;20048;-69
2024/01/07 06:12:16;;;;;;;43.95;30.08;;;;;;;;;;5050178;28;20040;-68
2024/01/07 06:15:20;;;;;;;39.72;29.67;;;;;;;;;;5050370;28;20052;-69
2024/01/07 06:18:24;;;;;;;45.88;29.55;;;;;;;;;;5097785;27;20056;-67
2024/01/07 06:21:29;;;;;;;40.85;30.95;;;;;;;;;;5049757;28;20503;-68
2024/01/07 06:24:33;;;;;;;40.42;29.63;;;;;;;;;;5049752;28;20048;-67
2024/01/07 06:27:38;;;;;;;44.97;32.50;;;11.70;99.90;;;;;;5049989;28;20044;-68
2024/01/07 06:30:43;;;;;;;46.97;30.25;;;;;;;;;;5050199;28;20056;-68
2024/01/07 06:33:47;;;;;;;46.08;29.92;;;;;;;;;;5049472;28;20064;-69
2024/01/07 06:36:52;;;;;;;43.10;28.80;;;;;;;;;;5049770;28;20048;-69
2024/01/07 06:39:58;;;;;;;42.20;28.67;;;11.50;99.90;;;;;;5097449;27;20044;-69
2024/01/07 06:43:02;;;;;;;38.78;28.98;;;11.40;99.90;;;;;;5049721;28;20044;-69
2024/01/07 06:46:06;;;;;;;45.85;30.80;;;11.00;99.90;;;;;;5049846;28;20048;-68
2024/01/07 06:49:10;;;;;;;47.03;30.27;;;;;;;;;;5049939;28;20044;-69
2024/01/07 06:52:14;;;;;;;42.95;29.92;;;10.60;99.90;;;;;;5049768;28;20040;-69
2024/01/07 06:55:18;;;;;;;43.10;29.27;;;10.80;99.90;;;;;;5049691;28;20488;-67
2024/01/07 06:58:22;;;;;;;40.78;29.30;;;11.00;99.90;;;;;;5049595;28;20408;-70
2024/01/07 07:01:26;;;;;;;47.70;30.42;;;11.60;99.90;;;;;;5097404;27;20044;-69
2024/01/07 07:04:29;;;;;;;47.58;31.40;;;12.60;99.90;;;;;;5049148;28;20052;-68
2024/01/07 07:07:34;;;;;;;43.13;30.15;;;10.50;99.90;;;;;;5049300;28;20052;-68
2024/01/07 07:10:38;;;;;;;52.70;35.28;;;12.90;99.90;;;;;;5097150;27;20060;-68
2024/01/07 07:13:42;;;;;;;59.25;36.50;;;13.30;99.90;;;;;;5049334;28;20040;-68
2024/01/07 07:16:46;;;;;;;49.70;34.90;;;10.70;99.90;;;;;;5049217;28;20040;-68
2024/01/07 07:19:50;;;;;;;49.55;35.40;;;11.40;99.90;;;;;;5096937;27;20511;-68
2024/01/07 07:22:54;;;;;;;51.08;33.60;;;13.90;99.90;;;;;;5049226;28;20072;-68
2024/01/07 07:25:58;;;;;;;52.45;32.97;;;13.20;99.90;;;;;;5049082;28;20040;-68
2024/01/07 07:29:02;;;;;;;47.78;30.58;;;11.60;99.90;;;;;;5049040;28;20508;-69
2024/01/07 07:32:06;;;;;;;40.35;27.60;;;13.30;99.90;;;;;;5049304;28;20499;-69
2024/01/07 07:35:10;;;;;;;42.63;28.00;;;10.10;99.90;;;;;;5049219;28;20476;-69
2024/01/07 07:38:14;;;;;;;37.65;26.88;;;10.20;99.90;;;;;;5096573;27;20393;-68
2024/01/07 07:41:18;;;;;;;39.00;25.20;;;10.80;99.90;;;;;;5049186;28;20045;-69
2024/01/07 07:44:22;;;;;;;36.65;22.75;;;;;;;;;;5047671;28;20060;-69
2024/01/07 07:47:26;;;;;;;36.33;24.35;;;;;;;;;;5084965;28;20044;-68
2024/01/07 07:50:30;;;;;;;34.85;23.23;;;;;;;;;;5048991;28;20043;-68
2024/01/07 07:53:35;;;;;;;34.47;22.17;;;;;;;;;;5048939;28;20048;-69
2024/01/07 07:56:39;;;;;;;35.15;20.23;;;;;;;;;;5048638;28;20044;-70
2024/01/07 07:59:43;;;;;;;33.60;21.23;;;;;;;;;;5096215;27;20040;-68
2024/01/07 08:02:47;;;;;;;32.03;21.27;;;;;;;;;;5048471;28;20048;-69
2024/01/07 08:05:52;;;;;;;35.58;21.25;;;;;;;;;;5048542;28;20052;-69
2024/01/07 08:08:56;;;;;;;31.67;20.70;;;;;;;;;;5048480;28;20036;-69
2024/01/07 08:12:01;;;;;;;34.05;19.98;;;;;;;;;;5096047;27;20396;-67
2024/01/07 08:15:05;;;;;;;31.63;21.25;;;11.30;99.90;;;;;;5096109;27;20482;-67
2024/01/07 08:18:10;;;;;;;39.00;22.05;;;;;;;;;;5095776;27;20056;-68
2024/01/07 08:21:14;;;;;;;33.67;20.75;;;;;;;;;;5048476;28;20052;-69
2024/01/07 08:24:19;;;;;;;32.60;19.92;;;;;;;;;;5048121;28;20056;-69
2024/01/07 08:27:23;;;;;;;33.13;21.83;;;;;;;;;;5048060;28;20036;-69
2024/01/07 08:30:27;;;;;;;40.80;24.95;;;;;;;;;;5048310;28;20051;-69
2024/01/07 08:33:33;;;;;;;46.92;24.33;;;;;;;;;;5095631;27;20063;-69
2024/01/07 08:36:38;;;;;;;32.50;20.23;;;;;;;;;;5048065;28;20037;-69
2024/01/07 08:39:42;;;;;;;32.95;19.92;;;;;;;;;;5048310;28;20052;-67
2024/01/07 08:42:47;;;;;;;32.55;19.70;;;;;;;;;;5095384;27;20048;-69
2024/01/07 08:45:51;;;;;;;41.38;27.10;;;;;;;;;;5048206;28;20052;-69
2024/01/07 08:48:55;;;;;;;42.47;28.23;;;;;;;;;;5048143;28;20583;-69
2024/01/07 08:51:59;;;;;;;29.90;20.25;;;;;;;;;;5048069;28;20051;-68
2024/01/07 08:55:06;;;;;;;26.17;18.10;;;;;;;;;;5047898;28;20040;-69
2024/01/07 08:58:10;;;;;;;31.98;19.65;;;;;;;;;;5047705;28;20036;-68
2024/01/07 09:01:14;;;;;;;29.73;19.08;;;;;;;;;;5095628;27;20052;-68
2024/01/07 09:04:18;;;;;;;27.58;16.48;;;;;;;;;;5047897;28;20052;-68
2024/01/07 09:07:22;;;;;;;25.70;19.38;;;;;;;;;;5095622;27;20496;-70
2024/01/07 09:10:27;;;;;;;24.05;10.02;;;;;;;;;;5095374;28;20040;-69
2024/01/07 09:13:32;;;;;;;21.55;8.90;;;;;;;;;;5048136;28;20052;-69
2024/01/07 09:16:36;;;;;;;25.45;9.30;;;;;;;;;;5093323;28;20067;-69
2024/01/07 09:19:40;;;;;;;21.60;6.70;;;;;;;;;;5045933;28;20048;-69
2024/01/07 09:22:45;;;;;;;23.70;5.80;;;;;;;;;;5046700;28;20047;-70
2024/01/07 09:25:49;;;;;;;21.95;5.70;;;;;;;;;;5047142;28;20056;-68
2024/01/07 09:28:53;;;;;;;23.13;5.13;;;;;;;;;;5047113;28;20048;-69
2024/01/07 09:31:59;;;;;;;23.23;4.63;;;;;;;;;;5047441;28;20113;-70
2024/01/07 09:35:05;;;;;;;20.10;4.25;;;;;;;;;;5047407;28;20397;-69
2024/01/07 09:38:09;;;;;;;19.08;4.35;;;;;;;;;;5047510;28;20645;-69
2024/01/07 09:41:13;;;;;;;21.90;4.72;;;;;;;;;;5047751;28;20048;-70
2024/01/07 09:44:18;;;;;;;16.98;4.35;;;12.30;99.90;;;;;;5047499;28;20060;-69
2024/01/07 09:47:23;;;;;;;13.13;3.42;;;;;;;;;;5047303;28;20040;-70
2024/01/07 09:50:27;;;;;;;26.80;9.10;;;;;;;;;;5047430;28;20044;-69
2024/01/07 09:53:38;;;;;;;21.65;4.47;;;12.30;99.90;;;;;;5047554;28;20052;-69
2024/01/07 09:56:49;;;;;;;23.30;4.05;;;12.40;99.90;;;;;;5094746;28;20517;-69
2024/01/07 09:59:53;;;;;;;;;;;12.40;99.90;;;;;;5047849;28;20048;-68
2024/01/07 10:02:57;;;;;;;21.13;4.35;;;;;;;;;;5047408;28;19908;-70
2024/01/07 10:06:02;;;;;;;20.65;4.03;;;;;;;;;;5095028;28;20504;-68
2024/01/07 10:09:06;;;;;;;27.85;4.78;;;12.40;99.90;;;;;;5050496;28;20048;-69
2024/01/07 10:12:12;;;;;;;21.73;5.20;;;;;;;;;;5050356;28;20044;-68
2024/01/07 10:15:16;;;;;;;21.05;4.80;;;;;;;;;;5050365;28;20512;-68
2024/01/07 10:18:20;;;;;;;26.45;5.22;;;;;;;;;;5050331;28;20599;-68
2024/01/07 10:21:25;;;;;;;22.10;6.30;;;;;;;;;;5050860;28;20526;-68
2024/01/07 10:24:39;;;;;;;23.20;6.20;;;12.60;99.90;;;;;;5050364;28;20508;-69
2024/01/07 10:27:43;;;;;;;20.48;4.63;;;;;;;;;;5050363;28;20052;-68
2024/01/07 10:30:52;;;;;;;30.17;6.93;;;12.30;99.90;;;;;;5050576;28;20065;-68
2024/01/07 10:33:57;;;;;;;25.15;7.20;;;;;;;;;;5050285;28;20044;-69
2024/01/07 10:37:02;;;;;;;22.83;6.68;;;12.40;99.90;;;;;;5050317;28;20044;-68
2024/01/07 10:40:07;;;;;;;21.45;7.65;;;12.70;99.90;;;;;;5050286;28;20381;-69
2024/01/07 10:43:13;;;;;;;25.15;6.45;;;12.60;99.90;;;;;;5050167;28;20048;-69
2024/01/07 10:46:17;;;;;;;25.50;6.40;;;;;;;;;;5049881;28;20068;-69
2024/01/07 10:49:23;;;;;;;24.70;6.00;;;12.50;99.90;;;;;;5050170;28;20044;-69
2024/01/07 10:52:28;;;;;;;28.75;6.30;;;;;;;;;;5049933;28;20044;-69
2024/01/07 10:55:37;;;;;;;22.95;3.88;;;12.40;99.90;;;;;;5098073;27;20056;-69
2024/01/07 10:58:42;;;;;;;27.95;5.38;;;12.50;99.90;;;;;;5097845;27;20059;-69
2024/01/07 11:01:46;;;;;;;28.63;5.80;;;;;;;;;;5049625;28;20051;-69
2024/01/07 11:05:11;;;;;;;29.88;8.75;;;12.40;99.90;;;;;;5049378;28;20047;-70
2024/01/07 11:08:36;;;;;;;24.02;5.18;;;12.50;99.90;;;;;;5050023;28;20396;-69
2024/01/07 11:11:42;;;;;;;23.77;4.20;;;;;;;;;;5049478;28;20051;-70
2024/01/07 11:14:52;;;;;;;22.80;5.00;;;;;;;;;;5049988;28;20056;-69
2024/01/07 11:17:56;;;;;;;23.50;5.72;;;;;;;;;;5049507;28;20519;-69
2024/01/07 11:21:01;;;;;;;27.75;7.90;;;;;;;;;;5049773;28;20044;-68
2024/01/07 11:24:06;;;;;;;29.75;7.93;;;;;;;;;;5049350;28;20113;-68
2024/01/07 11:27:10;;;;;;;25.70;6.13;;;;;;;;;;5049617;28;20048;-69
2024/01/07 11:30:20;;;;;;;27.25;6.53;;;12.60;99.90;;;;;;5049512;28;20059;-70
2024/01/07 11:33:32;;;;;;;36.22;6.28;;;12.70;99.90;;;;;;5097399;27;20052;-69
2024/01/07 11:36:37;;;;;;;30.65;6.03;;;12.50;99.90;;;;;;5049128;28;20404;-68
2024/01/07 11:39:49;;;;;;;28.38;6.43;;;12.50;99.90;;;;;;5049552;28;20579;-68
2024/01/07 11:42:53;;;;;;;28.50;6.60;;;;;;;;;;5049029;28;20400;-68
2024/01/07 11:45:57;;;;;;;33.30;6.82;;;;;;;;;;5048783;28;20044;-69
2024/01/07 11:49:02;;;;;;;32.13;7.50;;;;;;;;;;5085124;28;20048;-69
2024/01/07 11:52:06;;;;;;;25.50;5.72;;;;;;;;;;5049089;28;20044;-68
2024/01/07 11:55:10;;;;;;;24.48;5.57;;;;;;;;;;5048891;28;20040;-70
2024/01/07 11:58:14;;;;;;;21.13;4.68;;;;;;;;;;5048934;28;20044;-69
2024/01/07 12:01:19;;;;;;;16.60;3.72;;;;;;;;;;5048835;28;20040;-68
2024/01/07 12:04:23;;;;;;;22.23;5.72;;;;;;;;;;5048796;28;20048;-69
2024/01/07 12:07:27;;;;;;;20.05;4.97;;;;;;;;;;5048882;28;20044;-68
2024/01/07 12:10:32;;;;;;;19.10;5.05;;;;;;;;;;5048814;28;20139;-70
2024/01/07 12:13:36;;;;;;;15.25;4.13;;;;;;;;;;5048887;28;20117;-69
2024/01/07 12:16:40;;;;;;;19.48;5.95;;;;;;;;;;5048632;28;20040;-69
2024/01/07 12:19:45;;;;;;;18.38;5.90;;;;;;;;;;5048627;28;20067;-69
2024/01/07 12:22:49;;;;;;;17.38;4.72;;;;;;;;;;5048848;28;20040;-68
2024/01/07 12:25:55;;;;;;;19.92;4.85;;;;;;;;;;5048493;28;20408;-69
2024/01/07 12:29:03;;;;;;;19.92;5.05;;;12.00;99.90;;;;;;5048573;28;20044;-69
2024/01/07 12:32:09;;;;;;;24.88;5.35;;;;;;;;;;5048225;28;20364;-69
2024/01/07 12:35:13;;;;;;;18.98;4.88;;;;;;;;;;5048459;28;20396;-69
2024/01/07 12:38:26;;;;;;;19.70;5.47;;;12.10;99.90;;;;;;5048349;28;20040;-70
2024/01/07 12:41:31;;;;;;;20.40;4.32;;;;;;;;;;5048357;28;20056;-70
2024/01/07 12:44:36;;;;;;;16.35;5.63;;;12.20;99.90;;;;;;5048170;28;20060;-69
2024/01/07 12:47:42;;;;;;;24.67;6.93;;;12.10;99.90;;;;;;5048362;28;20032;-68
2024/01/07 12:50:46;;;;;;;19.77;6.80;;;;;;;;;;5048312;28;20488;-68
2024/01/07 12:53:50;;;;;;;25.58;6.80;;;;;;;;;;5048111;28;20052;-70
2024/01/07 12:56:54;;;;;;;17.33;5.85;;;;;;;;;;5095096;27;20044;-69
2024/01/07 12:59:59;;;;;;;19.35;4.65;;;;;;;;;;5048206;28;20040;-69
2024/01/07 13:03:04;;;;;;;19.15;4.78;;;;;;;;;;5095908;27;20512;-68
2024/01/07 13:06:09;;;;;;;12.68;3.92;;;;;;;;;;5048074;28;20080;-69
2024/01/07 13:09:13;;;;;;;13.07;3.40;;;;;;;;;;5048237;28;20048;-69
2024/01/07 13:12:18;;;;;;;14.35;4.25;;;;;;;;;;5095580;28;20039;-69
2024/01/07 13:15:22;;;;;;;17.33;4.15;;;;;;;;;;5048205;28;20052;-69
2024/01/07 13:18:26;;;;;;;17.05;4.43;;;;;;;;;;5095547;28;20052;-68
2024/01/07 13:21:31;;;;;;;11.90;4.50;;;;;;;;;;5047853;28;20045;-69
2024/01/07 13:24:35;;;;;;;17.45;4.10;;;;;;;;;;5047662;28;20519;-70
2024/01/07 13:27:41;;;;;;;16.40;4.68;;;;;;;;;;5095092;28;20052;-69
2024/01/07 13:30:45;;;;;;;24.15;5.32;;;;;;;;;;5047837;28;20048;-70
2024/01/07 13:33:49;;;;;;;18.27;5.13;;;;;;;;;;5047846;28;20050;-68
2024/01/07 13:36:55;;;;;;;13.48;4.88;;;;;;;;;;5047201;28;20045;-68
2024/01/07 13:40:00;;;;;;;20.30;6.57;;;;;;;;;;5047495;28;20052;-69
2024/01/07 13:43:05;;;;;;;17.48;7.22;;;;;;;;;;5049221;28;20132;-69
2024/01/07 13:46:09;;;;;;;21.23;7.75;;;;;;;;;;5098619;27;20412;-68
2024/01/07 13:49:14;;;;;;;24.38;8.40;;;;;;;;;;5051023;28;20044;-69
2024/01/07 13:52:19;;;;;;;23.20;8.50;;;;;;;;;;5050933;28;20044;-68
2024/01/07 13:55:23;;;;;;;20.83;4.88;;;;;;;;;;5051125;28;20052;-68
2024/01/07 13:58:27;;;;;;;15.95;3.97;;;;;;;;;;5099191;27;20044;-69
2024/01/07 14:01:32;;;;;;;27.35;8.95;;;;;;;;;;5050834;28;20036;-68
2024/01/07 14:04:36;;;;;;;24.48;7.65;;;;;;;;;;5050596;28;20052;-69
2024/01/07 14:07:41;;;;;;;26.77;11.80;;;;;;;;;;5050764;28;20044;-68
2024/01/07 14:11:07;;;;;;;22.92;11.00;;;;;;;;;;5050670;28;20056;-69
2024/01/07 14:14:11;;;;;;;30.55;13.40;;;;;;;;;;5050889;28;20151;-68
2024/01/07 14:17:15;;;;;;;20.05;7.75;;;10.20;99.90;;;;;;5098432;27;20040;-69
2024/01/07 14:20:21;;;;;;;25.00;11.93;;;;;;;;;;5098222;27;20515;-69
2024/01/07 14:23:25;;;;;;;38.45;18.05;;;;;;;;;;5050652;28;20040;-69
2024/01/07 14:26:30;;;;;;;25.00;8.32;;;;;;;;;;5050229;28;20040;-68
2024/01/07 14:29:34;;;;;;;32.72;13.27;;;;;;;;;;5098508;27;20044;-69
2024/01/07 14:32:38;;;;;;;24.38;11.77;;;;;;;;;;5050600;28;20507;-69
2024/01/07 14:35:42;;;;;;;31.98;15.68;;;;;;;;;;5050030;28;20048;-70
2024/01/07 14:38:47;;;;;;;22.50;9.77;;;;;;;;;;5050468;28;20056;-68
2024/01/07 14:41:51;;;;;;;25.13;9.50;;;;;;;;;;5050118;28;20044;-69
2024/01/07 14:44:56;;;;;;;21.17;8.63;;;;;;;;;;5049970;28;20051;-69
2024/01/07 14:48:00;;;;;;;23.08;8.63;;;;;;;;;;5050317;28;20483;-69
2024/01/07 14:51:05;;;;;;;26.40;9.75;;;;;;;;;;5050076;28;20044;-69
2024/01/07 14:54:09;;;;;;;21.15;8.32;;;;;;;;;;5049687;28;20044;-68
2024/01/07 14:57:14;;;;;;;34.47;15.18;;;;;;;;;;5097722;27;20424;-69
2024/01/07 15:00:18;;;;;;;40.13;16.30;;;11.30;99.90;;;;;;5049975;28;20515;-69
2024/01/07 15:03:22;;;;;;;19.13;7.78;;;11.10;99.90;;;;;;5049884;28;20044;-69
2024/01/07 15:06:26;;;;;;;33.60;14.73;;;;;;;;;;5049610;28;20055;-70
2024/01/07 15:09:30;;;;;;;25.85;13.30;;;11.00;99.90;;;;;;5049964;28;20040;-69
2024/01/07 15:12:38;;;;;;;29.65;11.00;;;10.70;99.90;;;;;;5049972;28;20051;-69
2024/01/07 15:15:42;;;;;;;24.50;9.60;;;11.10;99.90;;;;;;5049863;28;20048;-70
2024/01/07 15:18:46;;;;;;;29.40;11.75;;;10.20;99.90;;;;;;5049473;28;20064;-70
2024/01/07 15:21:50;;;;;;;24.23;11.32;;;10.30;99.90;;;;;;5049413;28;20036;-69
2024/01/07 15:24:54;;;;;;;34.78;14.90;;;10.70;99.90;;;;;;5049621;28;20052;-71
2024/01/07 15:27:58;;;;;;;30.75;16.60;;;;;;;;;;5049342;28;20044;-70
2024/01/07 15:31:03;;;;;;;121.82;52.35;;;11.10;99.90;;;;;;5049399;28;20048;-69
2024/01/07 15:34:07;;;;;;;35.38;19.50;;;10.60;99.90;;;;;;5097451;27;20147;-69
2024/01/07 15:37:11;;;;;;;35.40;18.65;;;10.00;99.90;;;;;;5049071;28;20048;-69
2024/01/07 15:40:15;;;;;;;35.72;18.73;;;11.20;99.90;;;;;;5049553;28;20048;-68
2024/01/07 15:43:19;;;;;;;32.55;16.33;;;10.20;99.90;;;;;;5049610;28;20040;-68
2024/01/07 15:46:23;;;;;;;30.05;17.25;;;12.70;99.90;;;;;;5048965;28;20052;-69
2024/01/07 15:49:26;;;;;;;39.38;17.40;;;10.40;99.90;;;;;;5049210;28;20060;-69
2024/01/07 15:52:30;;;;;;;35.42;17.70;;;9.90;99.90;;;;;;5097010;27;20511;-70
2024/01/07 15:55:38;;;;;;;35.08;18.90;;;10.50;99.90;;;;;;5049128;28;20044;-69
2024/01/07 15:58:42;;;;;;;37.13;19.60;;;10.60;99.90;;;;;;5096828;27;20048;-69
2024/01/07 16:01:47;;;;;;;36.35;18.70;;;10.60;99.90;;;;;;5048727;28;20060;-69
2024/01/07 16:04:51;;;;;;;37.95;20.38;;;;;;;;;;5047897;28;20048;-69
2024/01/07 16:07:55;;;;;;;44.00;25.38;;;10.60;99.90;;;;;;5048936;28;20121;-69
2024/01/07 16:10:59;;;;;;;42.00;25.25;;;10.50;99.90;;;;;;5048991;28;20052;-69
2024/01/07 16:14:04;;;;;;;47.80;27.33;;;;;;;;;;5096658;27;20051;-68
2024/01/07 16:17:08;;;;;;;51.97;25.88;;;10.40;99.90;;;;;;5048509;28;20052;-68
2024/01/07 16:20:12;;;;;;;44.38;22.67;;;10.50;99.90;;;;;;5048658;28;20040;-69
2024/01/07 16:23:17;;;;;;;54.92;31.77;;;;;;;;;;5048401;28;20044;-69
2024/01/07 16:26:21;;;;;;;35.92;22.63;;;;;;;;;;5048617;28;20044;-68
2024/01/07 16:29:25;;;;;;;118.18;71.15;;;11.90;99.90;;;;;;5048501;28;20506;-69
2024/01/07 16:32:29;;;;;;;46.13;28.73;;;10.50;99.90;;;;;;5048528;28;20059;-70
2024/01/07 16:35:35;;;;;;;41.95;22.10;;;10.60;99.90;;;;;;5048291;28;20044;-69
2024/01/07 16:38:40;;;;;;;34.67;19.20;;;10.50;99.90;;;;;;5095629;27;20044;-70
2024/01/07 16:41:43;;;;;;;29.42;17.55;;;10.50;99.90;;;;;;5048705;28;20041;-70
2024/01/07 16:44:47;;;;;;;34.10;20.63;;;10.80;99.90;;;;;;5048343;28;20055;-69
2024/01/07 16:47:51;;;;;;;31.35;19.70;;;10.80;99.90;;;;;;5048317;28;20048;-69
2024/01/07 16:50:55;;;;;;;43.55;23.60;;;10.40;99.90;;;;;;5048402;28;20048;-69
2024/01/07 16:53:59;;;;;;;38.88;22.08;;;10.50;99.90;;;;;;5047963;28;20393;-68
2024/01/07 16:57:03;;;;;;;34.80;18.85;;;10.10;99.90;;;;;;5048047;28;20596;-69
2024/01/07 17:00:10;;;;;;;37.97;18.13;;;10.60;99.90;;;;;;5048296;28;20055;-70
2024/01/07 17:03:13;;;;;;;33.53;18.33;;;10.70;99.90;;;;;;5048092;28;20047;-69
2024/01/07 17:06:17;;;;;;;34.90;17.33;;;10.20;99.90;;;;;;5047998;28;20056;-69
2024/01/07 17:09:23;;;;;;;35.58;17.13;;;;;;;;;;5047760;28;20041;-70
2024/01/07 17:12:28;;;;;;;31.45;17.55;;;10.40;99.90;;;;;;5048276;28;20063;-68
2024/01/07 17:15:33;;;;;;;32.78;16.02;;;10.60;99.90;;;;;;5096025;28;20052;-70